DLH4JA EDDM-LROP
Flight info
| Callsign | DLH4JA |
|---|---|
| Flight time | N/A |
| Altitude | 39000 |
| Route | KIRDI3S KIRDI DCT BUWOQ DCT OBFEZ DCT STEIN DCT TEGRI DCT LAMIT DCT TOSVI |
| Aircraft | A319/M-SDE3FGHIRWY/LB1 |
Departure
| Time | 2026-05-07 14:30 |
|---|---|
| Airport | Munich Airport (EDDM) |
Arrival
| Time | N/A |
|---|---|
| Airport | Bucharest Henri Coandă International Airport (LROP) |
| Time | Latitude | Longitude | Altitude | Speed | Heading |
|---|---|---|---|---|---|
| 2026-05-07 14:10 | 48.35062 | 11.79354 | 1467 ft | 0 kts | 263° |
| 2026-05-07 14:19 | 48.35064 | 11.79377 | 1460 ft | 4 kts | 263° |
| 2026-05-07 14:20 | 48.35067 | 11.79417 | 1460 ft | 4 kts | 261° |
| 2026-05-07 14:20 | 48.35072 | 11.79457 | 1460 ft | 4 kts | 256° |
| 2026-05-07 14:20 | 48.35081 | 11.79495 | 1459 ft | 4 kts | 237° |
| 2026-05-07 14:20 | 48.35096 | 11.79516 | 1457 ft | 2 kts | 176° |
| 2026-05-07 14:21 | 48.35098 | 11.79516 | 1457 ft | 0 kts | 173° |
| 2026-05-07 14:24 | 48.35095 | 11.79517 | 1467 ft | 1 kts | 173° |
| 2026-05-07 14:24 | 48.35083 | 11.79519 | 1460 ft | 2 kts | 173° |
| 2026-05-07 14:24 | 48.35063 | 11.79523 | 1462 ft | 4 kts | 173° |
| 2026-05-07 14:24 | 48.35032 | 11.79528 | 1467 ft | 5 kts | 173° |
| 2026-05-07 14:25 | 48.34998 | 11.79550 | 1463 ft | 6 kts | 140° |
| 2026-05-07 14:25 | 48.34981 | 11.79605 | 1460 ft | 6 kts | 102° |
| 2026-05-07 14:25 | 48.34967 | 11.79666 | 1462 ft | 6 kts | 139° |
| 2026-05-07 14:25 | 48.34923 | 11.79678 | 1460 ft | 7 kts | 179° |
| 2026-05-07 14:26 | 48.34875 | 11.79683 | 1467 ft | 7 kts | 173° |
| 2026-05-07 14:26 | 48.34823 | 11.79703 | 1463 ft | 8 kts | 157° |
| 2026-05-07 14:26 | 48.34799 | 11.79773 | 1467 ft | 8 kts | 82° |
| 2026-05-07 14:26 | 48.34809 | 11.79860 | 1467 ft | 9 kts | 80° |
| 2026-05-07 14:27 | 48.34820 | 11.79952 | 1467 ft | 9 kts | 81° |
| 2026-05-07 14:27 | 48.34828 | 11.80048 | 1463 ft | 9 kts | 83° |
| 2026-05-07 14:27 | 48.34836 | 11.80151 | 1467 ft | 10 kts | 84° |
| 2026-05-07 14:27 | 48.34844 | 11.80265 | 1463 ft | 11 kts | 84° |
| 2026-05-07 14:28 | 48.34852 | 11.80382 | 1468 ft | 12 kts | 84° |
| 2026-05-07 14:28 | 48.34828 | 11.80507 | 1462 ft | 13 kts | 129° |
| 2026-05-07 14:28 | 48.34748 | 11.80559 | 1465 ft | 13 kts | 171° |
| 2026-05-07 14:28 | 48.34650 | 11.80572 | 1464 ft | 15 kts | 184° |
| 2026-05-07 14:29 | 48.34560 | 11.80503 | 1462 ft | 15 kts | 220° |
| 2026-05-07 14:29 | 48.34488 | 11.80385 | 1465 ft | 15 kts | 236° |
| 2026-05-07 14:29 | 48.34460 | 11.80255 | 1467 ft | 0 kts | 264° |
| 2026-05-07 14:30 | 48.34433 | 11.79889 | 1460 ft | 75 kts | 264° |
| 2026-05-07 14:30 | 48.34353 | 11.78784 | 1466 ft | 138 kts | 264° |
| 2026-05-07 14:30 | 48.34207 | 11.77148 | 1714 ft | 165 kts | 264° |
| 2026-05-07 14:30 | 48.34058 | 11.75460 | 2482 ft | 161 kts | 265° |
| 2026-05-07 14:31 | 48.33933 | 11.73788 | 3082 ft | 166 kts | 267° |
| 2026-05-07 14:31 | 48.33680 | 11.71981 | 3369 ft | 191 kts | 244° |
| 2026-05-07 14:31 | 48.32586 | 11.70617 | 3444 ft | 229 kts | 201° |
| 2026-05-07 14:31 | 48.30958 | 11.70431 | 4133 ft | 232 kts | 180° |
| 2026-05-07 14:32 | 48.29362 | 11.70603 | 4913 ft | 236 kts | 174° |
| 2026-05-07 14:32 | 48.27825 | 11.71569 | 5000 ft | 256 kts | 147° |
| 2026-05-07 14:32 | 48.26320 | 11.73226 | 5006 ft | 276 kts | 146° |
| 2026-05-07 14:32 | 48.24735 | 11.74897 | 5006 ft | 279 kts | 147° |
| 2026-05-07 14:33 | 48.23110 | 11.76555 | 5437 ft | 284 kts | 148° |
| 2026-05-07 14:33 | 48.21470 | 11.78205 | 6348 ft | 284 kts | 148° |
| 2026-05-07 14:33 | 48.19967 | 11.80164 | 7360 ft | 290 kts | 132° |
| 2026-05-07 14:33 | 48.18907 | 11.82756 | 8356 ft | 296 kts | 113° |
| 2026-05-07 14:34 | 48.18430 | 11.85770 | 9332 ft | 301 kts | 94° |
| 2026-05-07 14:34 | 48.18541 | 11.88922 | 10257 ft | 306 kts | 83° |
| 2026-05-07 14:34 | 48.18781 | 11.92119 | 11129 ft | 310 kts | 83° |
| 2026-05-07 14:34 | 48.19019 | 11.95365 | 11985 ft | 316 kts | 84° |
| 2026-05-07 14:35 | 48.19256 | 11.98664 | 12836 ft | 321 kts | 84° |
| 2026-05-07 14:35 | 48.19495 | 12.02013 | 13688 ft | 326 kts | 84° |
| 2026-05-07 14:35 | 48.19735 | 12.05416 | 14443 ft | 331 kts | 84° |
| 2026-05-07 14:35 | 48.19976 | 12.08865 | 15222 ft | 334 kts | 84° |
| 2026-05-07 14:36 | 48.20217 | 12.12346 | 15990 ft | 338 kts | 84° |
| 2026-05-07 14:36 | 48.20462 | 12.15873 | 16761 ft | 341 kts | 84° |
| 2026-05-07 14:36 | 48.20708 | 12.19430 | 17531 ft | 345 kts | 84° |
| 2026-05-07 14:36 | 48.20955 | 12.23032 | 18290 ft | 349 kts | 84° |
| 2026-05-07 14:37 | 48.21204 | 12.26675 | 18820 ft | 353 kts | 84° |
| 2026-05-07 14:37 | 48.21697 | 12.34006 | 19016 ft | 353 kts | 84° |
| 2026-05-07 14:37 | 48.21942 | 12.37668 | 19026 ft | 352 kts | 84° |
| 2026-05-07 14:38 | 48.22187 | 12.41311 | 19020 ft | 352 kts | 84° |
| 2026-05-07 14:38 | 48.22430 | 12.44935 | 19017 ft | 352 kts | 84° |
| 2026-05-07 14:38 | 48.22671 | 12.48591 | 19023 ft | 352 kts | 85° |
| 2026-05-07 14:38 | 48.22911 | 12.52249 | 19023 ft | 352 kts | 85° |
| 2026-05-07 14:39 | 48.23104 | 12.55906 | 19023 ft | 352 kts | 90° |
| 2026-05-07 14:39 | 48.22908 | 12.59607 | 19031 ft | 368 kts | 99° |
| 2026-05-07 14:39 | 48.22527 | 12.63542 | 19016 ft | 391 kts | 99° |
| 2026-05-07 14:39 | 48.22137 | 12.67619 | 19019 ft | 398 kts | 99° |
| 2026-05-07 14:40 | 48.21747 | 12.71743 | 19020 ft | 400 kts | 99° |
| 2026-05-07 14:40 | 48.21358 | 12.75872 | 19024 ft | 400 kts | 99° |
| 2026-05-07 14:40 | 48.20967 | 12.79999 | 19024 ft | 400 kts | 99° |
| 2026-05-07 14:40 | 48.20789 | 12.84162 | 19023 ft | 401 kts | 89° |
| 2026-05-07 14:41 | 48.20865 | 12.88341 | 19022 ft | 401 kts | 89° |
| 2026-05-07 14:41 | 48.20935 | 12.92528 | 19013 ft | 401 kts | 89° |
| 2026-05-07 14:41 | 48.20999 | 12.96711 | 19178 ft | 404 kts | 90° |
| 2026-05-07 14:41 | 48.21057 | 13.00942 | 19900 ft | 406 kts | 89° |
| 2026-05-07 14:42 | 48.21115 | 13.05183 | 20572 ft | 408 kts | 89° |
| 2026-05-07 14:42 | 48.21171 | 13.09454 | 21221 ft | 411 kts | 89° |
| 2026-05-07 14:42 | 48.21228 | 13.13759 | 21868 ft | 414 kts | 89° |
| 2026-05-07 14:42 | 48.21285 | 13.18105 | 22495 ft | 418 kts | 89° |
| 2026-05-07 14:43 | 48.21340 | 13.22470 | 23096 ft | 421 kts | 89° |
| 2026-05-07 14:43 | 48.21392 | 13.26878 | 23672 ft | 424 kts | 89° |
| 2026-05-07 14:43 | 48.21442 | 13.31320 | 24148 ft | 427 kts | 89° |
| 2026-05-07 14:43 | 48.21493 | 13.35785 | 24624 ft | 430 kts | 89° |
| 2026-05-07 14:44 | 48.21543 | 13.40292 | 25074 ft | 434 kts | 90° |
| 2026-05-07 14:44 | 48.21592 | 13.44772 | 25517 ft | 437 kts | 91° |
| 2026-05-07 14:44 | 48.21640 | 13.49400 | 25965 ft | 440 kts | 91° |
| 2026-05-07 14:44 | 48.21683 | 13.53947 | 26421 ft | 443 kts | 91° |
| 2026-05-07 14:45 | 48.21728 | 13.58579 | 26878 ft | 446 kts | 91° |
| 2026-05-07 14:45 | 48.21773 | 13.63243 | 27328 ft | 449 kts | 91° |
| 2026-05-07 14:45 | 48.21815 | 13.67935 | 27774 ft | 451 kts | 92° |
| 2026-05-07 14:45 | 48.21852 | 13.72658 | 28211 ft | 454 kts | 92° |
| 2026-05-07 14:46 | 48.21886 | 13.77410 | 28637 ft | 457 kts | 92° |
| 2026-05-07 14:46 | 48.21919 | 13.82192 | 29044 ft | 460 kts | 93° |
| 2026-05-07 14:46 | 48.21949 | 13.86979 | 29543 ft | 460 kts | 93° |
| 2026-05-07 14:46 | 48.21978 | 13.91788 | 29988 ft | 461 kts | 93° |
| 2026-05-07 14:47 | 48.21793 | 13.96577 | 30331 ft | 460 kts | 102° |
| 2026-05-07 14:47 | 48.21150 | 14.01248 | 30622 ft | 458 kts | 110° |
| 2026-05-07 14:47 | 48.20064 | 14.05738 | 30903 ft | 457 kts | 118° |
| 2026-05-07 14:47 | 48.18778 | 14.10125 | 31169 ft | 460 kts | 118° |
| 2026-05-07 14:48 | 48.17486 | 14.14515 | 31469 ft | 462 kts | 118° |
| 2026-05-07 14:48 | 48.16185 | 14.18930 | 31853 ft | 463 kts | 118° |
| 2026-05-07 14:48 | 48.14888 | 14.23344 | 32189 ft | 464 kts | 118° |
| 2026-05-07 14:48 | 48.13588 | 14.27774 | 32558 ft | 464 kts | 118° |
| 2026-05-07 14:49 | 48.12289 | 14.32197 | 32932 ft | 465 kts | 118° |
| 2026-05-07 14:49 | 48.10987 | 14.36626 | 33295 ft | 466 kts | 118° |
| 2026-05-07 14:49 | 48.09676 | 14.41066 | 33664 ft | 466 kts | 118° |
| 2026-05-07 14:49 | 48.08361 | 14.45506 | 34032 ft | 467 kts | 118° |
| 2026-05-07 14:50 | 48.07043 | 14.49956 | 34343 ft | 468 kts | 118° |
| 2026-05-07 14:50 | 48.05743 | 14.54345 | 34653 ft | 468 kts | 118° |
| 2026-05-07 14:50 | 48.04423 | 14.58791 | 34972 ft | 468 kts | 118° |
| 2026-05-07 14:50 | 48.03082 | 14.63290 | 35240 ft | 468 kts | 118° |
| 2026-05-07 14:51 | 48.01770 | 14.67678 | 35522 ft | 469 kts | 118° |
| 2026-05-07 14:51 | 48.00438 | 14.72122 | 35815 ft | 469 kts | 118° |
| 2026-05-07 14:51 | 47.99106 | 14.76556 | 36117 ft | 469 kts | 118° |
| 2026-05-07 14:51 | 47.97770 | 14.80997 | 36415 ft | 468 kts | 118° |
| 2026-05-07 14:52 | 47.96439 | 14.85423 | 36710 ft | 468 kts | 118° |
| 2026-05-07 14:52 | 47.95104 | 14.89866 | 36999 ft | 468 kts | 118° |
| 2026-05-07 14:52 | 47.93770 | 14.94291 | 37254 ft | 468 kts | 118° |
| 2026-05-07 14:52 | 47.92434 | 14.98709 | 37507 ft | 468 kts | 119° |
| 2026-05-07 14:53 | 47.91091 | 15.03134 | 37719 ft | 469 kts | 119° |
| 2026-05-07 14:53 | 47.89741 | 15.07567 | 37926 ft | 470 kts | 119° |
| 2026-05-07 14:53 | 47.88389 | 15.12007 | 38147 ft | 471 kts | 118° |
| 2026-05-07 14:53 | 47.87039 | 15.16445 | 38394 ft | 471 kts | 118° |
| 2026-05-07 14:54 | 47.85686 | 15.20885 | 38634 ft | 471 kts | 118° |
| 2026-05-07 14:54 | 47.84329 | 15.25330 | 38822 ft | 471 kts | 118° |
| 2026-05-07 14:54 | 47.82971 | 15.29773 | 38946 ft | 472 kts | 118° |
| 2026-05-07 14:54 | 47.81611 | 15.34211 | 38989 ft | 472 kts | 118° |
| 2026-05-07 14:55 | 47.78913 | 15.43062 | 38985 ft | 472 kts | 118° |
| 2026-05-07 14:55 | 47.76219 | 15.51976 | 38992 ft | 472 kts | 118° |
| 2026-05-07 14:56 | 47.73960 | 15.59443 | 38989 ft | 473 kts | 118° |
| 2026-05-07 14:56 | 47.71273 | 15.68298 | 38984 ft | 473 kts | 118° |
| 2026-05-07 14:57 | 47.68547 | 15.77195 | 38977 ft | 473 kts | 119° |
| 2026-05-07 14:57 | 47.65823 | 15.86070 | 38986 ft | 473 kts | 119° |
| 2026-05-07 14:58 | 47.63968 | 15.92111 | 38992 ft | 473 kts | 119° |
| 2026-05-07 14:58 | 47.63475 | 15.93712 | 38994 ft | 473 kts | 119° |
| 2026-05-07 14:59 | 47.60735 | 16.02578 | 38989 ft | 473 kts | 119° |
| 2026-05-07 14:59 | 47.57987 | 16.11432 | 38979 ft | 473 kts | 119° |
| 2026-05-07 15:00 | 47.55245 | 16.20256 | 38992 ft | 471 kts | 119° |
| 2026-05-07 15:00 | 47.52493 | 16.29060 | 38992 ft | 470 kts | 120° |
| 2026-05-07 15:01 | 47.49741 | 16.37824 | 38991 ft | 469 kts | 120° |
| 2026-05-07 15:01 | 47.46992 | 16.46564 | 38989 ft | 469 kts | 120° |
| 2026-05-07 15:02 | 47.44239 | 16.55294 | 38980 ft | 468 kts | 120° |
| 2026-05-07 15:02 | 47.41764 | 16.64225 | 38983 ft | 472 kts | 113° |
| 2026-05-07 15:03 | 47.39633 | 16.73350 | 38983 ft | 472 kts | 114° |
| 2026-05-07 15:03 | 47.37476 | 16.82518 | 38982 ft | 471 kts | 114° |
| 2026-05-07 15:04 | 47.35326 | 16.91595 | 38968 ft | 471 kts | 114° |
| 2026-05-07 15:04 | 47.33153 | 17.00715 | 38978 ft | 471 kts | 114° |
| 2026-05-07 15:05 | 47.30990 | 17.09765 | 38975 ft | 471 kts | 114° |
| 2026-05-07 15:05 | 47.28809 | 17.18879 | 38982 ft | 472 kts | 114° |
| 2026-05-07 15:06 | 47.26623 | 17.27968 | 38972 ft | 472 kts | 114° |
| 2026-05-07 15:06 | 47.24429 | 17.37060 | 38982 ft | 473 kts | 114° |
| 2026-05-07 15:07 | 47.22230 | 17.46119 | 38988 ft | 472 kts | 114° |
| 2026-05-07 15:07 | 47.20021 | 17.55193 | 38990 ft | 472 kts | 114° |
| 2026-05-07 15:08 | 47.17799 | 17.64301 | 38979 ft | 473 kts | 114° |
| 2026-05-07 15:08 | 47.15581 | 17.73333 | 38993 ft | 473 kts | 114° |
| 2026-05-07 15:09 | 47.13342 | 17.82408 | 39001 ft | 472 kts | 114° |
| 2026-05-07 15:09 | 47.11100 | 17.91468 | 39011 ft | 472 kts | 114° |
| 2026-05-07 15:10 | 47.08850 | 18.00525 | 38995 ft | 472 kts | 115° |
| 2026-05-07 15:10 | 47.06593 | 18.09579 | 39009 ft | 473 kts | 115° |
| 2026-05-07 15:11 | 47.04319 | 18.18632 | 39016 ft | 473 kts | 115° |
| 2026-05-07 15:11 | 47.02042 | 18.27681 | 39013 ft | 473 kts | 115° |
| 2026-05-07 15:12 | 46.99764 | 18.36720 | 38991 ft | 473 kts | 115° |
| 2026-05-07 15:12 | 46.97476 | 18.45750 | 39003 ft | 473 kts | 115° |
| 2026-05-07 15:13 | 46.95179 | 18.54761 | 39013 ft | 472 kts | 115° |
| 2026-05-07 15:13 | 46.92890 | 18.63718 | 39023 ft | 472 kts | 115° |
| 2026-05-07 15:14 | 46.90579 | 18.72725 | 39005 ft | 472 kts | 115° |